Woolwine, Virginia
Current Conditions -  °F | °C
As of 6:15 AM on Thursday 23 Oct 2014 (Local Time) from KMTV Reporting Station
Clear Clear  
Wind Chill: 43°   Ceiling: Unl
Heat Index: 48°   Visibility: 10mi
Dew Point: 39°   Wind: 14mph
Humidity: 71%   Direction: 320°NW
Pressure: 30.05"   Gusts: 18mph
Location:  36.79°N, 80.28°W
Report Text: KMTV 231015Z AUTO 32012G16KT 10SM CLR 09/04 A3005 RMK AO2 T00910040
Loading
Personal Weather Stations






























Interactive Weather Map
Tropical Storm Tracking
New forecast layout! Learn more

10-Day Weather Forecast

Advertisements
Track Severe Weather on mobile